Time;durP1;ratioP1;P1;durP2;ratioP2;P2;SDS_P1;SDS_P2;PMS_P1;PMS_P2;Temp;Humidity;BMP_temperature;BMP_pressure;BME280_temperature;BME280_humidity;BME280_pressure;Samples;Min_cycle;Max_cycle;Signal;HPM_P1;HPM_P2
2021/10/30 00:00:27;;;;;;;6.70;2.08;;;21.90;58.70;;;;;;5074209;28;20099;-66
2021/10/30 00:02:55;;;;;;;5.97;2.13;;;21.90;58.40;;;;;;5074436;28;20074;-69
2021/10/30 00:05:22;;;;;;;8.27;2.42;;;22.00;59.10;;;;;;5073281;28;20032;-66
2021/10/30 00:07:50;;;;;;;7.00;2.10;;;22.00;58.70;;;;;;5071781;28;20051;-64
2021/10/30 00:10:17;;;;;;;5.55;2.47;;;22.00;58.20;;;;;;5053750;28;20025;-62
2021/10/30 00:12:45;;;;;;;7.88;2.53;;;22.00;58.60;;;;;;5053599;28;20650;-62
2021/10/30 00:15:16;;;;;;;6.53;2.17;;;22.00;58.80;;;;;;5053465;28;20111;-65
2021/10/30 00:17:43;;;;;;;6.30;2.33;;;22.10;58.60;;;;;;5053930;28;20017;-63
2021/10/30 00:20:11;;;;;;;5.38;1.80;;;22.10;58.40;;;;;;5053940;28;20043;-65
2021/10/30 00:22:39;;;;;;;5.05;2.00;;;22.10;58.10;;;;;;5053601;28;20119;-64
2021/10/30 00:25:07;;;;;;;8.18;1.98;;;22.10;58.50;;;;;;5052056;28;20033;-62
2021/10/30 00:27:34;;;;;;;4.40;2.47;;;22.20;58.60;;;;;;5053877;28;20110;-71
2021/10/30 00:30:02;;;;;;;8.60;2.53;;;22.20;58.50;;;;;;5053838;28;20083;-69
2021/10/30 00:32:29;;;;;;;7.68;2.38;;;22.20;59.00;;;;;;5053559;28;20388;-61
2021/10/30 00:34:57;;;;;;;7.32;2.05;;;22.20;58.60;;;;;;5050314;28;20124;-66
2021/10/30 00:37:24;;;;;;;6.05;1.85;;;22.30;59.10;;;;;;5054269;28;20043;-66
2021/10/30 00:39:52;;;;;;;7.38;2.60;;;22.30;58.40;;;;;;5073195;28;20070;-66
2021/10/30 00:42:19;;;;;;;4.40;1.65;;;22.30;58.50;;;;;;5073496;28;20025;-67
2021/10/30 00:44:47;;;;;;;4.05;2.15;;;22.30;59.10;;;;;;5073369;28;20032;-67
2021/10/30 00:47:14;;;;;;;8.57;2.47;;;22.30;58.90;;;;;;5073664;28;20063;-61
2021/10/30 00:49:46;;;;;;;5.18;1.80;;;22.30;59.00;;;;;;5073504;28;20411;-62
2021/10/30 00:52:15;;;;;;;8.45;2.60;;;22.40;58.90;;;;;;5073619;28;20021;-66
2021/10/30 00:54:46;;;;;;;4.97;1.77;;;22.40;58.70;;;;;;5072798;28;20083;-61
2021/10/30 00:57:15;;;;;;;6.93;2.47;;;22.40;58.70;;;;;;5073203;28;20020;-61
2021/10/30 00:59:43;;;;;;;6.20;2.38;;;22.40;58.50;;;;;;5073594;28;20029;-65
2021/10/30 01:02:10;;;;;;;5.82;2.00;;;22.40;58.90;;;;;;5073768;28;20059;-61
2021/10/30 01:04:38;;;;;;;4.65;2.20;;;22.40;58.40;;;;;;5073388;28;20021;-64
2021/10/30 01:07:06;;;;;;;4.78;1.98;;;22.40;57.70;;;;;;5071734;28;20090;-63
2021/10/30 01:09:37;;;;;;;8.65;2.42;;;22.40;58.50;;;;;;5073450;28;20021;-64
2021/10/30 01:12:05;;;;;;;4.90;1.95;;;22.40;58.60;;;;;;5073417;28;20032;-63
2021/10/30 01:14:34;;;;;;;6.88;2.35;;;22.40;58.70;;;;;;5071713;28;20028;-65
2021/10/30 01:17:04;;;;;;;7.75;2.50;;;22.40;58.50;;;;;;5073248;28;20029;-63
2021/10/30 01:19:33;;;;;;;5.00;2.08;;;22.50;58.10;;;;;;5072825;28;20028;-62
2021/10/30 01:22:01;;;;;;;8.35;2.33;;;22.50;58.90;;;;;;5071763;28;20017;-63
2021/10/30 01:24:28;;;;;;;4.28;1.90;;;22.50;58.90;;;;;;5073211;28;20033;-67
2021/10/30 01:26:56;;;;;;;7.15;2.45;;;22.50;58.40;;;;;;5072601;28;20120;-64
2021/10/30 01:29:23;;;;;;;6.15;2.03;;;22.60;57.60;;;;;;5072251;28;20116;-64
2021/10/30 01:31:53;;;;;;;6.03;2.05;;;22.60;58.10;;;;;;5072641;28;20054;-61
2021/10/30 01:34:25;;;;;;;6.93;2.30;;;22.60;58.30;;;;;;5071130;28;20028;-62
2021/10/30 01:36:52;;;;;;;5.93;2.08;;;22.60;57.90;;;;;;5072297;28;20029;-66
2021/10/30 01:39:20;;;;;;;5.60;1.83;;;22.60;57.80;;;;;;5072104;28;20036;-66
2021/10/30 01:41:47;;;;;;;4.80;1.90;;;22.70;58.40;;;;;;5071773;28;20043;-67
2021/10/30 01:44:14;;;;;;;7.13;2.25;;;22.70;58.00;;;;;;5071937;28;20027;-66
2021/10/30 01:46:42;;;;;;;8.68;1.70;;;22.70;58.50;;;;;;5070241;28;20086;-65
2021/10/30 01:49:09;;;;;;;4.72;1.92;;;22.80;57.50;;;;;;5072185;28;20059;-62
2021/10/30 01:51:36;;;;;;;5.15;2.20;;;22.80;57.80;;;;;;5071395;28;20028;-67
2021/10/30 01:54:04;;;;;;;6.88;2.47;;;22.80;58.70;;;;;;5071750;28;20460;-64
2021/10/30 01:56:31;;;;;;;4.50;1.77;;;22.80;56.20;;;;;;5071711;28;20336;-65
2021/10/30 01:58:59;;;;;;;5.93;1.65;;;22.80;58.50;;;;;;5071516;28;20563;-63
2021/10/30 02:01:26;;;;;;;9.20;2.13;;;22.90;58.00;;;;;;5071532;28;20112;-65
2021/10/30 02:03:59;;;;;;;5.75;1.77;;;22.90;57.30;;;;;;5072309;28;20107;-62
2021/10/30 02:06:26;;;;;;;4.38;2.25;;;22.90;57.90;;;;;;5071833;28;20033;-64
2021/10/30 02:08:54;;;;;;;5.72;1.67;;;23.00;57.10;;;;;;5060317;28;20036;-65
2021/10/30 02:11:22;;;;;;;6.68;2.35;;;23.00;57.20;;;;;;5068512;28;20021;-63
2021/10/30 02:13:49;;;;;;;7.30;1.92;;;23.10;56.10;;;;;;5069618;28;20055;-63
2021/10/30 02:16:17;;;;;;;5.47;2.10;;;23.10;56.50;;;;;;5071293;28;20484;-65
2021/10/30 02:18:45;;;;;;;8.02;3.03;;;23.10;56.30;;;;;;5065577;28;20032;-62
2021/10/30 02:21:12;;;;;;;6.28;1.90;;;23.10;56.20;;;;;;5069215;28;20498;-66
2021/10/30 02:23:39;;;;;;;4.50;2.20;;;23.20;56.60;;;;;;5070970;28;20028;-69
2021/10/30 02:26:07;;;;;;;8.02;2.42;;;23.20;56.20;;;;;;5069237;28;20028;-62
2021/10/30 02:28:34;;;;;;;8.50;2.95;;;23.20;56.90;;;;;;5065228;28;20036;-59
2021/10/30 02:31:02;;;;;;;5.57;2.47;;;23.30;56.60;;;;;;5071596;28;20494;-63
2021/10/30 02:33:30;;;;;;;5.40;2.17;;;23.30;56.50;;;;;;5071827;28;20093;-66
2021/10/30 02:36:00;;;;;;;9.02;2.60;;;23.40;56.00;;;;;;5068420;28;20479;-63
2021/10/30 02:38:28;;;;;;;5.75;2.80;;;23.40;55.40;;;;;;5060981;28;20021;-66
2021/10/30 02:40:55;;;;;;;6.03;2.28;;;23.40;56.30;;;;;;5071828;28;20036;-66
2021/10/30 02:43:26;;;;;;;6.38;2.65;;;23.40;55.70;;;;;;5069999;28;20064;-64
2021/10/30 02:45:54;;;;;;;8.03;3.17;;;23.40;56.20;;;;;;5070776;28;20029;-69
2021/10/30 02:48:21;;;;;;;9.07;3.17;;;23.40;56.10;;;;;;5065944;28;20381;-64
2021/10/30 02:50:48;;;;;;;7.20;2.63;;;23.40;56.20;;;;;;5071674;28;20359;-61
2021/10/30 02:53:16;;;;;;;6.43;2.90;;;23.40;55.80;;;;;;5068894;28;20090;-63
2021/10/30 02:55:43;;;;;;;10.38;2.45;;;23.50;55.60;;;;;;5069270;28;20055;-65
2021/10/30 02:58:11;;;;;;;6.35;2.30;;;23.50;56.50;;;;;;5066696;28;20119;-63
2021/10/30 03:00:38;;;;;;;9.05;2.58;;;23.50;56.30;;;;;;5073462;28;20025;-62
2021/10/30 03:03:06;;;;;;;4.93;2.55;;;23.50;56.10;;;;;;5070805;28;20108;-65
2021/10/30 03:05:33;;;;;;;7.07;2.45;;;23.50;56.20;;;;;;5074279;28;20025;-63
2021/10/30 03:08:00;;;;;;;8.95;3.08;;;23.50;56.00;;;;;;5073157;28;20058;-58
2021/10/30 03:10:28;;;;;;;6.90;3.22;;;23.60;55.90;;;;;;5068577;28;20029;-68
2021/10/30 03:12:56;;;;;;;6.40;2.58;;;23.60;55.80;;;;;;5074831;28;20047;-68
2021/10/30 03:15:23;;;;;;;5.40;2.15;;;23.60;55.30;;;;;;5074306;28;20110;-71
2021/10/30 03:17:51;;;;;;;7.03;2.58;;;23.70;55.50;;;;;;5075266;28;20032;-68
2021/10/30 03:20:19;;;;;;;9.23;2.47;;;23.60;55.30;;;;;;5073349;28;20071;-67
2021/10/30 03:22:47;;;;;;;6.88;2.78;;;23.70;55.80;;;;;;5074970;28;20283;-68
2021/10/30 03:25:15;;;;;;;6.20;2.50;;;23.70;55.40;;;;;;5075350;28;20017;-68
2021/10/30 03:27:42;;;;;;;5.25;2.35;;;23.70;56.10;;;;;;5074952;28;20028;-69
2021/10/30 03:30:11;;;;;;;4.68;2.08;;;23.70;55.90;;;;;;5075017;28;20152;-69
2021/10/30 03:32:38;;;;;;;8.45;2.58;;;23.70;55.50;;;;;;5074647;28;20036;-69
2021/10/30 03:35:06;;;;;;;6.10;2.50;;;23.70;55.50;;;;;;5075073;28;20021;-68
2021/10/30 03:37:34;;;;;;;8.88;2.78;;;23.60;55.20;;;;;;5074235;28;20046;-67
2021/10/30 03:40:06;;;;;;;6.57;2.38;;;23.70;55.50;;;;;;5074527;28;20417;-69
2021/10/30 03:42:34;;;;;;;4.95;1.92;;;23.60;55.90;;;;;;5074607;28;20021;-69
2021/10/30 03:45:04;;;;;;;4.72;2.28;;;23.60;56.10;;;;;;5074146;28;20032;-67
2021/10/30 03:47:31;;;;;;;4.85;1.92;;;23.60;55.90;;;;;;5074570;28;20068;-66
2021/10/30 03:49:59;;;;;;;5.97;2.22;;;23.60;56.20;;;;;;5074603;28;20493;-70
2021/10/30 03:52:27;;;;;;;5.80;1.98;;;23.50;56.00;;;;;;5074912;28;20074;-69
2021/10/30 03:54:54;;;;;;;6.72;2.10;;;23.50;56.20;;;;;;5074518;28;20137;-71
2021/10/30 03:57:22;;;;;;;6.60;2.22;;;23.40;55.60;;;;;;5073748;28;20021;-69
2021/10/30 03:59:50;;;;;;;7.07;2.28;;;23.40;56.10;;;;;;5073874;28;20027;-70
2021/10/30 04:02:18;;;;;;;5.65;2.28;;;23.40;56.00;;;;;;5074128;28;20475;-69
2021/10/30 04:04:46;;;;;;;6.80;2.33;;;23.40;56.20;;;;;;5074354;28;20025;-72
2021/10/30 04:07:14;;;;;;;4.53;1.92;;;23.30;56.20;;;;;;5072595;28;20040;-68
2021/10/30 04:09:41;;;;;;;5.10;2.00;;;23.30;56.30;;;;;;5073049;28;20353;-68
2021/10/30 04:12:09;;;;;;;4.35;2.05;;;23.20;56.50;;;;;;5074169;28;20034;-69
2021/10/30 04:14:37;;;;;;;4.43;1.88;;;23.20;56.50;;;;;;5073756;28;20040;-68
2021/10/30 04:17:05;;;;;;;6.80;2.38;;;23.20;56.50;;;;;;5073853;28;20020;-63
2021/10/30 04:19:32;;;;;;;6.20;2.17;;;23.20;55.90;;;;;;5073570;28;20357;-63
2021/10/30 04:22:00;;;;;;;10.35;2.22;;;23.20;55.20;;;;;;5063649;28;20078;-64
2021/10/30 04:24:27;;;;;;;9.40;2.85;;;23.20;53.00;;;;;;5071922;28;20047;-64
2021/10/30 04:26:54;;;;;;;6.15;2.25;;;23.00;52.50;;;;;;5072005;28;20086;-60
2021/10/30 04:29:22;;;;;;;10.45;2.53;;;22.90;52.90;;;;;;5069017;28;20031;-61
2021/10/30 04:31:52;;;;;;;7.57;1.90;;;22.90;51.80;;;;;;5071602;28;20494;-63
2021/10/30 04:34:20;;;;;;;8.73;2.65;;;22.90;52.00;;;;;;5073208;28;20039;-61
2021/10/30 04:36:48;;;;;;;7.78;2.25;;;22.90;51.50;;;;;;5072441;28;20033;-68
2021/10/30 04:39:18;;;;;;;6.05;1.95;;;22.90;51.70;;;;;;5069463;28;20473;-60
2021/10/30 04:41:46;;;;;;;9.75;2.22;;;22.90;53.40;;;;;;5071293;28;20025;-64
2021/10/30 04:44:13;;;;;;;5.43;1.70;;;22.90;51.60;;;;;;5071084;28;20361;-62
2021/10/30 04:46:41;;;;;;;9.20;2.30;;;22.90;51.40;;;;;;5072740;28;20123;-62
2021/10/30 04:49:09;;;;;;;6.10;2.00;;;22.90;51.50;;;;;;5068361;28;20364;-62
2021/10/30 04:51:40;;;;;;;7.97;2.05;;;22.80;51.60;;;;;;5068077;28;20079;-63
2021/10/30 04:54:07;;;;;;;5.45;1.63;;;22.80;51.60;;;;;;5073064;28;20043;-61
2021/10/30 04:56:35;;;;;;;6.45;2.30;;;22.80;50.90;;;;;;5073745;28;20024;-61
2021/10/30 04:59:02;;;;;;;7.15;2.22;;;22.70;51.20;;;;;;5072731;28;20047;-65
2021/10/30 05:01:30;;;;;;;8.88;1.92;;;22.70;50.90;;;;;;5073176;28;20475;-65
2021/10/30 05:03:57;;;;;;;9.77;2.10;;;22.80;51.60;;;;;;5071933;28;20040;-64
2021/10/30 05:06:24;;;;;;;10.13;2.30;;;22.80;51.40;;;;;;5072330;28;20059;-60
2021/10/30 05:08:52;;;;;;;7.03;1.90;;;22.80;51.30;;;;;;5071376;28;20025;-58
2021/10/30 05:11:19;;;;;;;11.35;1.98;;;22.70;51.70;;;;;;5071786;28;20112;-58
2021/10/30 05:13:46;;;;;;;11.23;1.80;;;22.70;51.40;;;;;;5072434;28;20025;-59
2021/10/30 05:16:14;;;;;;;14.25;2.55;;;22.60;52.00;;;;;;5071862;28;20116;-59
2021/10/30 05:18:41;;;;;;;7.68;2.20;;;22.70;52.20;;;;;;5071194;28;20446;-63
2021/10/30 05:21:08;;;;;;;6.32;1.80;;;22.70;51.90;;;;;;5072117;28;20105;-62
2021/10/30 05:23:40;;;;;;;7.32;2.47;;;22.60;52.20;;;;;;5072432;28;20020;-63
2021/10/30 05:26:07;;;;;;;7.57;2.10;;;22.70;52.60;;;;;;5071677;28;20479;-65
2021/10/30 05:28:35;;;;;;;5.47;1.75;;;22.70;52.10;;;;;;5071202;28;20265;-63
2021/10/30 05:31:04;;;;;;;6.18;2.20;;;22.80;52.20;;;;;;5072421;28;20032;-62
2021/10/30 05:33:31;;;;;;;9.13;1.85;;;22.70;52.30;;;;;;5071612;28;20135;-70
2021/10/30 05:36:04;;;;;;;11.30;1.95;;;22.60;52.30;;;;;;5072767;28;20545;-63
2021/10/30 05:38:31;;;;;;;13.65;2.42;;;22.60;51.80;;;;;;5072563;28;20040;-63
2021/10/30 05:41:00;;;;;;;5.93;1.80;;;22.60;52.90;;;;;;5072363;28;20028;-62
2021/10/30 05:43:28;;;;;;;9.15;2.03;;;22.70;52.70;;;;;;5071904;28;20029;-64
2021/10/30 05:45:55;;;;;;;8.85;1.63;;;22.70;53.20;;;;;;5072602;28;20537;-62
2021/10/30 05:48:23;;;;;;;6.18;1.55;;;22.80;53.10;;;;;;5072522;28;20087;-60
2021/10/30 05:50:50;;;;;;;12.73;2.70;;;22.80;52.90;;;;;;5071612;28;20040;-64
2021/10/30 05:53:22;;;;;;;6.05;1.60;;;22.70;53.50;;;;;;5071451;28;20367;-64
2021/10/30 05:55:49;;;;;;;6.85;2.03;;;22.70;53.30;;;;;;5072293;28;20495;-64
2021/10/30 05:58:17;;;;;;;6.85;1.90;;;22.70;53.90;;;;;;5072696;28;20033;-62
2021/10/30 06:00:44;;;;;;;6.55;2.05;;;22.80;53.80;;;;;;5071721;28;20105;-66
2021/10/30 06:03:14;;;;;;;8.93;2.33;;;22.70;53.50;;;;;;5072496;28;20016;-64
2021/10/30 06:05:42;;;;;;;10.32;2.10;;;22.70;53.30;;;;;;5071211;28;20036;-61
2021/10/30 06:08:09;;;;;;;9.07;1.65;;;22.70;53.90;;;;;;5072258;28;20151;-62
2021/10/30 06:10:37;;;;;;;6.85;2.05;;;22.70;53.80;;;;;;5071724;28;20025;-63
2021/10/30 06:13:04;;;;;;;7.03;1.80;;;22.60;54.30;;;;;;5072021;28;20025;-64
2021/10/30 06:15:32;;;;;;;8.98;2.20;;;22.50;54.20;;;;;;5071848;28;20391;-68
2021/10/30 06:18:02;;;;;;;7.65;2.47;;;22.40;53.60;;;;;;5071399;28;20028;-64
2021/10/30 06:20:30;;;;;;;13.77;2.33;;;22.40;54.30;;;;;;5071393;28;20082;-67
2021/10/30 06:22:57;;;;;;;9.70;2.30;;;22.30;55.10;;;;;;5072623;28;20474;-67
2021/10/30 06:25:25;;;;;;;6.85;1.90;;;22.20;54.10;;;;;;5072337;28;20495;-65
2021/10/30 06:27:53;;;;;;;12.10;2.30;;;22.20;54.50;;;;;;5071450;28;20025;-63
2021/10/30 06:30:25;;;;;;;10.35;1.90;;;22.10;54.80;;;;;;5070345;28;20025;-68
2021/10/30 06:32:53;;;;;;;19.45;1.88;;;22.10;54.70;;;;;;5071656;28;20081;-60
2021/10/30 06:35:21;;;;;;;12.15;1.92;;;22.10;55.10;;;;;;5070969;28;20100;-69
2021/10/30 06:37:48;;;;;;;12.13;2.63;;;22.20;55.50;;;;;;5072079;28;20024;-65
2021/10/30 06:40:16;;;;;;;12.30;2.30;;;22.10;55.10;;;;;;5071572;28;20039;-64
2021/10/30 06:42:44;;;;;;;19.42;3.00;;;22.10;55.30;;;;;;5071431;28;20103;-63
2021/10/30 06:45:12;;;;;;;9.68;2.40;;;22.10;54.40;;;;;;5071883;28;20025;-64
2021/10/30 06:47:40;;;;;;;15.57;3.17;;;22.00;55.10;;;;;;5072162;28;20086;-63
2021/10/30 06:50:19;;;;;;;12.00;2.25;;;21.90;54.80;;;;;;5071725;28;20386;-58
2021/10/30 06:52:48;;;;;;;11.95;2.55;;;21.90;55.50;;;;;;5071484;28;20442;-63
2021/10/30 06:55:16;;;;;;;7.93;1.98;;;21.90;54.70;;;;;;5070140;28;20041;-64
2021/10/30 06:57:45;;;;;;;9.55;2.20;;;21.80;55.40;;;;;;5071170;28;20471;-63
2021/10/30 07:00:13;;;;;;;12.93;2.03;;;21.80;55.30;;;;;;5071830;28;20029;-63
2021/10/30 07:02:42;;;;;;;6.25;1.92;;;21.80;54.90;;;;;;5072054;28;20020;-64
2021/10/30 07:05:09;;;;;;;13.02;2.33;;;21.60;55.30;;;;;;5070710;28;20479;-67
2021/10/30 07:07:37;;;;;;;60.25;53.83;;;21.60;54.40;;;;;;5071362;28;20153;-63
2021/10/30 07:10:06;;;;;;;15.48;6.15;;;21.50;54.60;;;;;;5069966;28;20024;-65
2021/10/30 07:12:36;;;;;;;11.27;5.22;;;21.50;54.60;;;;;;5071768;28;20024;-62
2021/10/30 07:15:09;;;;;;;12.57;3.85;;;21.50;54.30;;;;;;5062408;28;20139;-67
2021/10/30 07:17:37;;;;;;;10.10;2.72;;;20.30;53.90;;;;;;5070628;28;20029;-66
2021/10/30 07:20:06;;;;;;;6.47;2.42;;;20.00;55.60;;;;;;5070760;28;20055;-63
2021/10/30 07:22:45;;;;;;;12.48;3.80;;;19.60;55.00;;;;;;5068741;28;20051;-64
2021/10/30 07:25:13;;;;;;;9.05;3.05;;;19.50;55.40;;;;;;5064392;28;20028;-66
2021/10/30 07:27:45;;;;;;;8.95;3.47;;;18.60;57.30;;;;;;5070298;28;20152;-72
2021/10/30 07:30:13;;;;;;;15.63;3.00;;;19.00;59.50;;;;;;5069687;28;20033;-67
2021/10/30 07:32:41;;;;;;;8.27;3.70;;;19.00;58.00;;;;;;5067750;28;20044;-68
2021/10/30 07:35:09;;;;;;;10.65;3.30;;;19.20;59.50;;;;;;5064693;28;20129;-61
2021/10/30 07:37:37;;;;;;;7.38;2.83;;;19.00;57.40;;;;;;5070031;28;20245;-63
2021/10/30 07:40:06;;;;;;;8.10;2.72;;;19.10;57.00;;;;;;5070192;28;20039;-63
2021/10/30 07:42:33;;;;;;;11.80;2.75;;;19.20;56.00;;;;;;5066740;28;20020;-64
2021/10/30 07:45:01;;;;;;;13.65;2.28;;;19.10;56.00;;;;;;5070243;28;20207;-62
2021/10/30 07:47:29;;;;;;;8.15;2.78;;;18.90;56.30;;;;;;5073309;28;20033;-65
2021/10/30 07:50:00;;;;;;;8.40;3.28;;;19.40;56.90;;;;;;5073352;28;20024;-65
2021/10/30 07:52:29;;;;;;;6.15;2.50;;;19.20;58.00;;;;;;5068711;28;20036;-63
2021/10/30 07:54:57;;;;;;;10.45;2.90;;;19.60;58.60;;;;;;5070702;28;20505;-64
2021/10/30 07:57:24;;;;;;;18.50;3.72;;;19.50;54.50;;;;;;5071583;28;20029;-66
2021/10/30 07:59:52;;;;;;;10.27;2.88;;;19.20;54.50;;;;;;5073009;28;20033;-61
2021/10/30 08:02:20;;;;;;;14.52;2.85;;;18.80;56.70;;;;;;5073399;28;20023;-69
2021/10/30 08:04:52;;;;;;;12.30;2.15;;;18.60;56.40;;;;;;5066617;28;20563;-64
2021/10/30 08:07:19;;;;;;;8.60;2.40;;;18.50;56.90;;;;;;5068768;28;20036;-64
2021/10/30 08:09:47;;;;;;;11.52;2.40;;;18.80;57.40;;;;;;5072454;28;20055;-67
2021/10/30 08:12:15;;;;;;;4.32;2.35;;;19.00;57.20;;;;;;5069853;28;20149;-65
2021/10/30 08:14:43;;;;;;;7.30;2.53;;;19.50;58.00;;;;;;5067511;28;20044;-63
2021/10/30 08:17:11;;;;;;;12.93;2.85;;;19.70;57.90;;;;;;5071937;28;20021;-63
2021/10/30 08:19:38;;;;;;;6.05;2.00;;;19.20;55.60;;;;;;5071035;28;20475;-64
2021/10/30 08:22:06;;;;;;;5.13;2.15;;;19.80;57.50;;;;;;5073328;28;20056;-65
2021/10/30 08:24:33;;;;;;;6.20;2.33;;;20.10;56.80;;;;;;5072904;28;20103;-64
2021/10/30 08:27:00;;;;;;;7.65;2.45;;;20.40;56.00;;;;;;5073997;28;20032;-64
2021/10/30 08:29:28;;;;;;;6.40;2.10;;;20.60;55.40;;;;;;5073873;28;20471;-63
2021/10/30 08:31:56;;;;;;;4.65;1.98;;;20.70;55.00;;;;;;5074202;28;20032;-65
2021/10/30 08:34:23;;;;;;;7.47;1.80;;;20.80;54.70;;;;;;5074180;28;20107;-63
2021/10/30 08:36:50;;;;;;;5.68;1.98;;;20.90;54.40;;;;;;5073911;28;20378;-65
2021/10/30 08:39:20;;;;;;;4.30;2.22;;;20.90;54.20;;;;;;5073771;28;20035;-63
2021/10/30 08:41:48;;;;;;;7.72;2.13;;;21.00;54.10;;;;;;5073322;28;20044;-63
2021/10/30 08:44:19;;;;;;;4.53;1.67;;;21.00;54.10;;;;;;5073871;28;20120;-66
2021/10/30 08:46:51;;;;;;;4.00;1.93;;;21.00;54.00;;;;;;5073125;28;20089;-67
2021/10/30 08:49:21;;;;;;;6.60;2.90;;;21.00;54.00;;;;;;5063209;28;20075;-62
2021/10/30 08:51:52;;;;;;;8.80;3.30;;;21.10;55.70;;;;;;5072110;28;20036;-68
2021/10/30 08:54:19;;;;;;;10.63;6.38;;;21.10;55.40;;;;;;5070622;28;20079;-65
2021/10/30 08:56:46;;;;;;;22.50;10.95;;;21.10;55.00;;;;;;5070455;28;20174;-69
2021/10/30 08:59:15;;;;;;;24.67;12.10;;;21.10;54.70;;;;;;5069833;28;20058;-66
2021/10/30 09:01:52;;;;;;;26.15;13.88;;;21.10;54.50;;;;;;5052163;28;20123;-66
2021/10/30 09:04:20;;;;;;;29.30;16.02;;;21.10;54.60;;;;;;5071181;28;20376;-64
2021/10/30 09:07:03;;;;;;;30.67;16.17;;;21.10;54.40;;;;;;5070491;28;20041;-62
2021/10/30 09:09:31;;;;;;;27.67;15.13;;;21.20;54.60;;;;;;5069315;28;20028;-64
2021/10/30 09:12:01;;;;;;;33.30;17.23;;;21.20;54.50;;;;;;5066335;28;20501;-64
2021/10/30 09:14:43;;;;;;;31.80;16.58;;;21.20;54.50;;;;;;5071582;28;20036;-64
2021/10/30 09:17:19;;;;;;;29.90;16.63;;;21.20;54.30;;;;;;5071199;28;20471;-60
2021/10/30 09:19:52;;;;;;;32.20;15.85;;;21.10;54.60;;;;;;5071556;28;20514;-61
2021/10/30 09:22:21;;;;;;;29.67;16.48;;;21.10;54.50;;;;;;5068198;28;20036;-66
2021/10/30 09:25:16;;;;;;;36.03;17.67;;;21.10;54.50;;;;;;5071598;28;20448;-66
2021/10/30 09:27:46;;;;;;;34.20;16.65;;;21.20;54.50;;;;;;5065613;28;20114;-63
2021/10/30 09:30:16;;;;;;;35.42;15.95;;;21.20;54.50;;;;;;5068532;28;20498;-63
2021/10/30 09:33:01;;;;;;;30.90;16.02;;;21.20;54.40;;;;;;5065654;28;20032;-66
2021/10/30 09:35:33;;;;;;;31.73;16.35;;;21.20;54.40;;;;;;5071717;28;20029;-61
2021/10/30 09:38:02;;;;;;;26.17;14.82;;;21.20;54.30;;;;;;5071542;28;20021;-63
2021/10/30 09:40:33;;;;;;;26.45;14.77;;;21.20;54.40;;;;;;5068280;28;20059;-65
2021/10/30 09:43:17;;;;;;;34.67;14.65;;;21.20;54.30;;;;;;5071105;28;20112;-67
2021/10/30 09:45:48;;;;;;;24.38;13.70;;;21.20;54.30;;;;;;5071532;28;20376;-66
2021/10/30 09:48:31;;;;;;;26.33;13.32;;;21.20;54.30;;;;;;5072135;28;20032;-68
2021/10/30 09:51:02;;;;;;;27.02;13.75;;;21.20;54.20;;;;;;5063870;28;20028;-63
2021/10/30 09:53:33;;;;;;;22.23;12.73;;;21.20;54.30;;;;;;5071689;28;20020;-64
2021/10/30 09:56:20;;;;;;;21.70;12.70;;;21.20;54.20;;;;;;5067364;28;20106;-63
2021/10/30 09:58:49;;;;;;;21.73;11.88;;;21.20;54.10;;;;;;5071250;28;20035;-64
2021/10/30 10:01:20;;;;;;;23.77;11.77;;;21.20;54.20;;;;;;5066439;28;20056;-62
2021/10/30 10:03:49;;;;;;;26.25;12.27;;;21.20;54.30;;;;;;5071737;28;20044;-64
2021/10/30 10:06:25;;;;;;;18.77;10.90;;;21.20;54.10;;;;;;5069702;28;20071;-63
2021/10/30 10:08:53;;;;;;;17.73;10.85;;;21.20;54.00;;;;;;5070636;28;20032;-64
2021/10/30 10:11:23;;;;;;;20.88;11.15;;;21.20;54.10;;;;;;5066483;28;20020;-66
2021/10/30 10:13:52;;;;;;;21.17;9.85;;;21.20;53.90;;;;;;5069329;28;20029;-65
2021/10/30 10:16:21;;;;;;;15.13;9.25;;;21.20;54.00;;;;;;5071190;28;20104;-63
2021/10/30 10:18:58;;;;;;;15.40;9.05;;;21.20;54.00;;;;;;5069561;28;20032;-64
2021/10/30 10:21:37;;;;;;;18.20;9.00;;;21.20;54.00;;;;;;5066084;28;20120;-63
2021/10/30 10:24:16;;;;;;;16.67;9.50;;;21.20;54.00;;;;;;5068159;28;20063;-62
2021/10/30 10:26:48;;;;;;;17.25;9.13;;;21.10;54.10;;;;;;5069832;28;20033;-64
2021/10/30 10:29:56;;;;;;;18.08;9.40;;;21.10;54.30;;;;;;5071555;28;20024;-63
2021/10/30 10:32:26;;;;;;;15.65;8.13;;;21.10;54.20;;;;;;5026355;28;20494;-65
2021/10/30 10:35:04;;;;;;;19.20;8.75;;;21.20;54.30;;;;;;5071954;28;20111;-63
2021/10/30 10:37:31;;;;;;;15.70;8.73;;;21.20;54.30;;;;;;5070496;28;20075;-62
2021/10/30 10:40:03;;;;;;;13.57;7.63;;;21.20;54.30;;;;;;5071339;28;20025;-70
2021/10/30 10:42:36;;;;;;;13.93;8.13;;;21.20;54.30;;;;;;5066195;28;20032;-60
2021/10/30 10:45:15;;;;;;;15.23;8.18;;;21.20;54.20;;;;;;5071734;28;20113;-64
2021/10/30 10:47:49;;;;;;;17.27;9.05;;;21.20;54.20;;;;;;5071173;28;20036;-64
2021/10/30 10:50:37;;;;;;;17.02;7.75;;;21.20;54.30;;;;;;5071604;28;20025;-65
2021/10/30 10:53:07;;;;;;;12.85;7.80;;;21.20;54.30;;;;;;5071538;28;20120;-60
2021/10/30 10:55:37;;;;;;;16.02;7.45;;;21.20;54.30;;;;;;5070044;28;20101;-66
2021/10/30 10:58:09;;;;;;;14.07;7.18;;;21.10;54.30;;;;;;5070971;28;21646;-65
2021/10/30 11:00:37;;;;;;;14.10;7.07;;;21.20;54.40;;;;;;5066275;28;20060;-62
2021/10/30 11:03:05;;;;;;;11.27;6.80;;;21.20;54.30;;;;;;5071251;28;20486;-59
2021/10/30 11:05:35;;;;;;;13.77;6.95;;;21.20;54.30;;;;;;5071494;28;20430;-61
2021/10/30 11:08:39;;;;;;;11.13;6.93;;;21.20;54.40;;;;;;5070026;28;20097;-61
2021/10/30 11:11:27;;;;;;;11.45;6.32;;;21.10;54.90;;;;;;5066158;28;20442;-62
2021/10/30 11:14:01;;;;;;;10.20;6.80;;;21.10;54.40;;;;;;5071298;28;20110;-64
2021/10/30 11:16:46;;;;;;;11.07;6.82;;;21.10;54.40;;;;;;5069732;28;20070;-64
2021/10/30 11:19:40;;;;;;;12.25;6.80;;;21.20;54.50;;;;;;5071052;28;20336;-65
2021/10/30 11:22:15;;;;;;;13.52;6.85;;;21.10;54.50;;;;;;5064825;28;20062;-68
2021/10/30 11:24:56;;;;;;;12.95;6.57;;;21.20;54.60;;;;;;5071608;28;20028;-66
2021/10/30 11:27:24;;;;;;;11.88;6.35;;;21.10;54.40;;;;;;5072640;28;20482;-62
2021/10/30 11:29:53;;;;;;;11.65;6.35;;;21.10;54.50;;;;;;5073805;28;20386;-61
2021/10/30 11:32:22;;;;;;;11.27;6.32;;;21.10;54.60;;;;;;5068553;28;20382;-66
2021/10/30 11:35:02;;;;;;;9.57;6.00;;;21.10;54.60;;;;;;5074786;28;20021;-66
2021/10/30 11:37:40;;;;;;;10.77;5.80;;;21.10;54.60;;;;;;5075467;28;20028;-60
2021/10/30 11:40:08;;;;;;;13.77;6.28;;;21.10;54.60;;;;;;5075834;28;20060;-62
2021/10/30 11:42:42;;;;;;;10.65;5.97;;;21.10;54.50;;;;;;5075421;28;20432;-64
2021/10/30 11:45:14;;;;;;;8.07;5.43;;;21.10;55.20;;;;;;5075295;28;20035;-62
2021/10/30 11:47:43;;;;;;;9.10;5.43;;;21.10;54.60;;;;;;5058552;28;20036;-63
2021/10/30 11:50:15;;;;;;;10.73;5.50;;;21.10;54.70;;;;;;5075842;28;20021;-62
2021/10/30 11:52:50;;;;;;;11.73;5.72;;;21.10;54.60;;;;;;5075214;28;20032;-62
2021/10/30 11:55:22;;;;;;;13.02;5.95;;;21.10;54.70;;;;;;5074912;28;20041;-61
2021/10/30 11:57:49;;;;;;;11.40;5.70;;;21.10;54.70;;;;;;5075161;28;20024;-62
2021/10/30 12:00:21;;;;;;;9.50;6.10;;;21.10;54.80;;;;;;5075092;28;20070;-62
2021/10/30 12:03:07;;;;;;;8.63;4.70;;;21.00;54.70;;;;;;5075080;28;20020;-64
2021/10/30 12:05:35;;;;;;;11.88;5.63;;;21.00;54.70;;;;;;5074896;28;20488;-62
2021/10/30 12:08:08;;;;;;;9.27;5.32;;;21.00;54.80;;;;;;5075201;28;20028;-63
2021/10/30 12:10:36;;;;;;;9.13;4.82;;;21.00;54.90;;;;;;5074627;28;20055;-64
2021/10/30 12:13:08;;;;;;;8.40;4.53;;;20.90;54.90;;;;;;5073636;28;20158;-64
2021/10/30 12:15:41;;;;;;;7.40;4.20;;;20.90;55.00;;;;;;5073988;28;20028;-64
2021/10/30 12:18:09;;;;;;;8.05;4.88;;;20.90;54.80;;;;;;5074572;28;20035;-64
2021/10/30 12:20:38;;;;;;;7.20;3.92;;;20.90;54.90;;;;;;5074537;28;20021;-66
2021/10/30 12:23:11;;;;;;;7.40;3.75;;;20.90;54.80;;;;;;5074283;28;20158;-67
2021/10/30 12:25:38;;;;;;;7.82;4.30;;;20.90;54.80;;;;;;5074207;28;20096;-66
2021/10/30 12:28:05;;;;;;;9.32;4.00;;;20.90;54.70;;;;;;5072888;28;20028;-65
2021/10/30 12:30:34;;;;;;;10.93;3.92;;;20.90;54.70;;;;;;5072135;28;20108;-65
2021/10/30 12:33:32;;;;;;;8.07;4.03;;;20.80;54.60;;;;;;5073869;28;20031;-64
2021/10/30 12:36:25;;;;;;;7.32;3.85;;;20.80;54.70;;;;;;5073435;28;20429;-65
2021/10/30 12:38:58;;;;;;;7.93;4.28;;;20.80;54.60;;;;;;5069132;28;20082;-64
2021/10/30 12:41:29;;;;;;;;;;;20.80;54.70;;;;;;5073750;28;20321;-63
2021/10/30 12:44:02;;;;;;;5.88;3.53;;;20.80;54.80;;;;;;5074053;28;19911;-68
2021/10/30 12:46:50;;;;;;;7.20;3.53;;;20.70;54.70;;;;;;5065799;28;20029;-63
2021/10/30 12:49:22;;;;;;;5.95;3.58;;;20.70;54.70;;;;;;5071929;28;20111;-66
2021/10/30 12:52:06;;;;;;;7.22;3.72;;;20.70;54.70;;;;;;5067818;28;20044;-64
2021/10/30 12:54:35;;;;;;;9.13;4.10;;;20.70;54.70;;;;;;5069203;28;20506;-65
2021/10/30 12:57:03;;;;;;;7.53;3.33;;;20.70;54.80;;;;;;5071720;28;20127;-66